createdAt,value
2018-08-09T00:01:02.921Z,9.17
2018-08-09T00:03:31.578Z,11.93
2018-08-09T00:06:00.281Z,11.53
2018-08-09T00:08:29.067Z,10.97
2018-08-09T00:10:57.792Z,11.57
2018-08-09T00:13:26.514Z,9.87
2018-08-09T00:15:55.397Z,14.93
2018-08-09T00:18:24.387Z,12.73
2018-08-09T00:20:53.183Z,11.77
2018-08-09T00:23:22.065Z,11.17
2018-08-09T00:25:51.291Z,12.53
2018-08-09T00:28:19.897Z,15.23
2018-08-09T00:30:48.568Z,11.97
2018-08-09T00:33:17.229Z,9.83
2018-08-09T00:35:45.860Z,11.47
2018-08-09T00:38:14.445Z,11.37
2018-08-09T00:40:43.103Z,15.57
2018-08-09T00:43:11.603Z,11.73
2018-08-09T00:45:40.203Z,10.60
2018-08-09T00:48:08.719Z,11.27
2018-08-09T00:50:37.287Z,12.23
2018-08-09T00:53:05.842Z,10.23
2018-08-09T00:55:34.402Z,11.43
2018-08-09T00:58:02.934Z,12.83
2018-08-09T01:00:31.636Z,11.90
2018-08-09T01:03:00.552Z,11.53
2018-08-09T01:05:29.386Z,12.00
2018-08-09T01:07:58.037Z,14.80
2018-08-09T01:10:26.695Z,11.97
2018-08-09T01:12:55.537Z,11.70
2018-08-09T01:15:24.340Z,13.47
2018-08-09T01:17:53.091Z,10.70
2018-08-09T01:20:22.901Z,12.20
2018-08-09T01:22:51.893Z,14.53
2018-08-09T01:25:20.941Z,11.03
2018-08-09T01:27:49.842Z,11.90
2018-08-09T01:30:18.872Z,14.93
2018-08-09T01:32:47.578Z,14.13
2018-08-09T01:35:16.186Z,15.80
2018-08-09T01:37:44.790Z,12.13
2018-08-09T01:40:13.567Z,13.90
2018-08-09T01:42:53.410Z,14.03
2018-08-09T01:45:22.519Z,12.63
2018-08-09T01:47:51.948Z,11.30
2018-08-09T01:50:21.676Z,16.63
2018-08-09T01:52:50.610Z,14.67
2018-08-09T01:55:19.547Z,14.33
2018-08-09T01:57:48.512Z,11.27
2018-08-09T02:00:17.574Z,12.63
2018-08-09T02:02:46.239Z,15.27
2018-08-09T02:05:14.951Z,12.60
2018-08-09T02:07:43.454Z,15.00
2018-08-09T02:10:12.128Z,15.03
2018-08-09T02:12:40.674Z,18.13
2018-08-09T02:15:09.370Z,12.73
2018-08-09T02:17:37.893Z,13.23
2018-08-09T02:20:06.575Z,15.30
2018-08-09T02:22:35.262Z,17.23
2018-08-09T02:25:03.867Z,14.50
2018-08-09T02:27:32.574Z,12.87
2018-08-09T02:30:01.456Z,15.90
2018-08-09T02:32:30.118Z,14.87
2018-08-09T02:34:58.845Z,17.13
2018-08-09T02:37:27.518Z,16.20
2018-08-09T02:39:56.230Z,13.13
2018-08-09T02:42:25.120Z,14.37
2018-08-09T02:44:54.101Z,18.73
2018-08-09T02:47:22.929Z,13.77
2018-08-09T02:49:52.865Z,14.77
2018-08-09T02:52:22.048Z,16.57
2018-08-09T02:54:51.408Z,14.20
2018-08-09T02:57:20.766Z,14.77
2018-08-09T02:59:49.796Z,15.37
2018-08-09T03:02:18.775Z,14.40
2018-08-09T03:04:47.358Z,13.93
2018-08-09T03:07:15.966Z,16.93
2018-08-09T03:09:44.699Z,16.07
2018-08-09T03:12:13.298Z,14.97
2018-08-09T03:14:41.814Z,15.10
2018-08-09T03:17:10.455Z,15.13
2018-08-09T03:19:39.007Z,14.07
2018-08-09T03:22:07.607Z,17.47
2018-08-09T03:24:36.111Z,17.17
2018-08-09T03:27:04.723Z,14.73
2018-08-09T03:29:33.305Z,15.53
2018-08-09T03:32:01.993Z,16.53
2018-08-09T03:34:30.782Z,16.67
2018-08-09T03:36:59.639Z,15.80
2018-08-09T03:39:28.324Z,18.77
2018-08-09T03:41:57.048Z,16.63
2018-08-09T03:44:25.706Z,17.30
2018-08-09T03:46:54.589Z,17.73
2018-08-09T03:49:23.981Z,16.77
2018-08-09T03:51:53.716Z,18.07
2018-08-09T03:54:23.131Z,17.33
2018-08-09T03:56:52.193Z,17.27
2018-08-09T03:59:21.110Z,15.90
2018-08-09T04:01:51.326Z,16.90
2018-08-09T04:04:20.316Z,18.13
2018-08-09T04:06:50.090Z,19.00
2018-08-09T04:09:19.971Z,16.13
2018-08-09T04:11:48.916Z,17.70
2018-08-09T04:14:17.624Z,13.13
2018-08-09T04:16:46.527Z,14.40
2018-08-09T04:19:15.310Z,16.57
2018-08-09T04:21:44.013Z,16.97
2018-08-09T04:24:12.562Z,20.57
2018-08-09T04:26:41.242Z,20.63
2018-08-09T04:29:09.772Z,17.30
2018-08-09T04:31:38.350Z,18.67
2018-08-09T04:34:09.025Z,18.33
2018-08-09T04:36:41.980Z,17.80
2018-08-09T04:39:10.606Z,23.97
2018-08-09T04:41:39.167Z,17.30
2018-08-09T04:44:07.755Z,18.83
2018-08-09T04:46:36.317Z,17.33
2018-08-09T04:49:04.951Z,21.97
2018-08-09T04:51:33.496Z,15.90
2018-08-09T04:54:02.235Z,14.80
2018-08-09T04:56:30.938Z,16.10
2018-08-09T04:58:59.676Z,20.13
2018-08-09T05:01:28.505Z,15.13
2018-08-09T05:03:57.454Z,15.60
2018-08-09T05:06:26.158Z,17.83
2018-08-09T05:08:55.162Z,17.27
2018-08-09T05:11:24.116Z,16.47
2018-08-09T05:13:53.209Z,15.03
2018-08-09T05:16:23.553Z,16.60
2018-08-09T05:18:52.823Z,15.27
2018-08-09T05:21:22.973Z,16.33
2018-08-09T05:23:51.953Z,21.07
2018-08-09T05:26:22.293Z,13.73
2018-08-09T05:28:51.390Z,14.53
2018-08-09T05:31:21.298Z,11.57
2018-08-09T05:33:50.847Z,14.73
2018-08-09T05:36:21.833Z,12.83
2018-08-09T05:38:51.338Z,11.73
2018-08-09T05:41:20.490Z,11.63
2018-08-09T05:43:49.936Z,13.43
2018-08-09T05:46:20.081Z,11.60
2018-08-09T05:48:50.289Z,10.53
2018-08-09T05:51:20.017Z,11.20
2018-08-09T05:53:49.379Z,12.20
2018-08-09T05:56:20.533Z,11.10
2018-08-09T05:58:50.350Z,9.00
2018-08-09T06:01:19.842Z,10.03
2018-08-09T06:03:48.695Z,9.80
2018-08-09T06:06:18.102Z,10.53
2018-08-09T06:08:46.878Z,9.23
2018-08-09T06:11:15.731Z,13.40
2018-08-09T06:13:44.369Z,11.43
2018-08-09T06:16:13.071Z,11.87
2018-08-09T06:18:41.762Z,10.10
2018-08-09T06:21:10.332Z,7.60
2018-08-09T06:23:38.976Z,10.68
2018-08-09T06:26:07.521Z,8.85
2018-08-09T06:28:36.241Z,9.75
2018-08-09T06:31:04.879Z,7.17
2018-08-09T06:33:33.698Z,7.55
2018-08-09T06:36:02.367Z,10.23
2018-08-09T06:38:31.191Z,10.58
2018-08-09T06:40:59.933Z,10.20
2018-08-09T06:43:28.899Z,8.83
2018-08-09T06:46:01.203Z,7.58
2018-08-09T06:48:29.933Z,8.28
2018-08-09T06:50:58.829Z,7.65
2018-08-09T06:53:27.932Z,8.20
2018-08-09T06:55:56.649Z,10.30
2018-08-09T06:58:25.345Z,10.40
2018-08-09T07:00:54.433Z,8.43
2018-08-09T07:03:24.110Z,7.92
2018-08-09T07:05:53.860Z,7.33
2018-08-09T07:08:23.048Z,8.03
2018-08-09T07:10:52.417Z,7.50
2018-08-09T07:13:21.574Z,7.85
2018-08-09T07:15:50.685Z,7.62
2018-08-09T07:18:21.428Z,8.23
2018-08-09T07:20:50.652Z,7.40
2018-08-09T07:23:20.444Z,8.13
2018-08-09T07:25:50.328Z,10.20
2018-08-09T07:28:20.014Z,10.32
2018-08-09T07:30:49.628Z,11.70
2018-08-09T07:33:18.541Z,7.87
2018-08-09T07:35:47.464Z,7.50
2018-08-09T07:38:16.185Z,11.85
2018-08-09T07:40:44.928Z,6.58
2018-08-09T07:43:13.521Z,10.20
2018-08-09T07:45:42.074Z,9.20
2018-08-09T07:48:10.656Z,10.10
2018-08-09T07:50:39.246Z,9.10
2018-08-09T07:53:07.898Z,9.73
2018-08-09T07:55:36.426Z,9.85
2018-08-09T07:58:05.090Z,8.10
2018-08-09T08:00:33.958Z,8.18
2018-08-09T08:03:02.822Z,9.40
2018-08-09T08:05:31.684Z,8.00
2018-08-09T08:08:00.604Z,6.53
2018-08-09T08:10:29.370Z,10.23
2018-08-09T08:12:58.094Z,6.53
2018-08-09T08:15:26.981Z,9.43
2018-08-09T08:17:55.872Z,7.17
2018-08-09T08:20:25.172Z,10.00
2018-08-09T08:22:54.124Z,8.60
2018-08-09T08:25:23.198Z,8.35
2018-08-09T08:27:52.423Z,9.18
2018-08-09T08:30:22.248Z,7.95
2018-08-09T08:32:51.829Z,7.80
2018-08-09T08:35:21.063Z,10.68
2018-08-09T08:37:50.501Z,8.73
2018-08-09T08:40:20.761Z,7.90
2018-08-09T08:42:50.387Z,8.55
2018-08-09T08:45:19.580Z,10.65
2018-08-09T08:47:49.617Z,7.03
2018-08-09T08:50:19.295Z,7.42
2018-08-09T08:52:48.872Z,8.73
2018-08-09T08:55:17.938Z,7.45
2018-08-09T08:57:46.452Z,6.70
2018-08-09T09:00:15.126Z,9.93
2018-08-09T09:02:43.795Z,7.55
2018-08-09T09:05:13.158Z,11.05
2018-08-09T09:07:41.955Z,7.55
2018-08-09T09:10:12.082Z,8.28
2018-08-09T09:12:40.618Z,8.48
2018-08-09T09:15:13.319Z,12.20
2018-08-09T09:17:42.777Z,8.58
2018-08-09T09:20:13.740Z,10.40
2018-08-09T09:22:42.883Z,9.50
2018-08-09T09:25:11.996Z,9.43
2018-08-09T09:27:40.503Z,7.78
2018-08-09T09:30:12.257Z,9.28
2018-08-09T09:32:40.822Z,8.65
2018-08-09T09:35:09.857Z,10.80
2018-08-09T09:37:38.801Z,10.35
2018-08-09T09:40:08.175Z,8.60
2018-08-09T09:42:37.197Z,8.60
2018-08-09T09:45:06.066Z,8.55
2018-08-09T09:47:34.772Z,11.10
2018-08-09T09:50:04.021Z,9.05
2018-08-09T09:52:32.861Z,8.70
2018-08-09T09:55:01.611Z,9.13
2018-08-09T09:57:30.320Z,11.03
2018-08-09T09:59:59.015Z,9.65
2018-08-09T10:02:27.801Z,8.60
2018-08-09T10:04:56.848Z,9.65
2018-08-09T10:07:26.148Z,11.43
2018-08-09T10:09:55.727Z,8.58
2018-08-09T10:12:25.311Z,8.38
2018-08-09T10:14:54.648Z,7.33
2018-08-09T10:17:23.961Z,8.28
2018-08-09T10:19:54.042Z,11.70
2018-08-09T10:22:23.627Z,12.80
2018-08-09T10:24:52.876Z,11.45
2018-08-09T10:27:22.097Z,8.10
2018-08-09T10:29:51.688Z,12.05
2018-08-09T10:32:21.567Z,8.30
2018-08-09T10:34:51.398Z,12.60
2018-08-09T10:37:22.230Z,8.53
2018-08-09T10:39:52.399Z,8.18
2018-08-09T10:42:21.744Z,10.48
2018-08-09T10:44:50.993Z,8.25
2018-08-09T10:47:20.062Z,8.00
2018-08-09T10:49:49.227Z,12.65
2018-08-09T10:52:18.291Z,10.28
2018-08-09T10:54:47.245Z,9.60
2018-08-09T10:57:15.928Z,9.38
2018-08-09T10:59:44.459Z,8.83
2018-08-09T11:02:13.301Z,9.65
2018-08-09T11:04:41.842Z,7.35
2018-08-09T11:07:10.428Z,8.85
2018-08-09T11:09:38.928Z,10.72
2018-08-09T11:12:07.518Z,10.53
2018-08-09T11:14:36.116Z,11.10
2018-08-09T11:17:04.710Z,7.83
2018-08-09T11:19:33.481Z,10.63
2018-08-09T11:22:02.428Z,9.80
2018-08-09T11:24:31.200Z,8.85
2018-08-09T11:26:59.873Z,8.40
2018-08-09T11:29:28.674Z,10.08
2018-08-09T11:31:57.443Z,11.80
2018-08-09T11:34:26.306Z,9.38
2018-08-09T11:36:55.497Z,10.72
2018-08-09T11:39:24.600Z,10.90
2018-08-09T11:41:54.022Z,10.28
2018-08-09T11:44:23.017Z,14.25
2018-08-09T11:46:52.515Z,8.70
2018-08-09T11:49:22.057Z,10.50
2018-08-09T11:51:51.958Z,8.60
2018-08-09T11:54:21.692Z,12.63
2018-08-09T11:56:50.954Z,10.10
2018-08-09T11:59:20.851Z,11.57
2018-08-09T12:01:51.330Z,11.33
2018-08-09T12:04:21.660Z,9.00
2018-08-09T12:06:51.089Z,11.28
2018-08-09T12:09:20.580Z,8.70
2018-08-09T12:11:51.017Z,13.58
2018-08-09T12:14:20.156Z,10.20
2018-08-09T12:16:49.236Z,11.53
2018-08-09T12:19:19.179Z,12.58
2018-08-09T12:21:49.602Z,9.88
2018-08-09T12:24:18.610Z,14.90
2018-08-09T12:26:47.227Z,11.53
2018-08-09T12:29:15.832Z,7.78
2018-08-09T12:31:44.405Z,13.53
2018-08-09T12:34:12.954Z,9.18
2018-08-09T12:36:41.632Z,13.20
2018-08-09T12:39:12.118Z,9.70
2018-08-09T12:41:40.896Z,9.05
2018-08-09T12:44:09.834Z,13.70
2018-08-09T12:46:38.374Z,7.80
2018-08-09T12:49:07.140Z,9.48
2018-08-09T12:51:35.732Z,8.40
2018-08-09T12:54:04.386Z,12.25
2018-08-09T12:56:32.903Z,12.95
2018-08-09T12:59:01.479Z,8.03
2018-08-09T13:01:30.025Z,11.65
2018-08-09T13:03:58.676Z,9.15
2018-08-09T13:06:27.405Z,9.55
2018-08-09T13:08:55.987Z,10.10
2018-08-09T13:11:24.951Z,6.53
2018-08-09T13:13:53.712Z,12.00
2018-08-09T13:16:22.341Z,9.93
2018-08-09T13:18:51.071Z,14.15
2018-08-09T13:21:19.692Z,12.60
2018-08-09T13:23:48.394Z,13.65
2018-08-09T13:26:16.940Z,10.40
2018-08-09T13:28:45.540Z,9.13
2018-08-09T13:31:14.138Z,7.75
2018-08-09T13:33:42.750Z,16.05
2018-08-09T13:36:11.248Z,15.32
2018-08-09T13:38:39.862Z,7.62
2018-08-09T13:41:08.455Z,9.78
2018-08-09T13:43:37.059Z,12.73
2018-08-09T13:46:05.803Z,10.15
2018-08-09T13:48:35.423Z,10.28
2018-08-09T13:51:04.021Z,13.08
2018-08-09T13:53:32.693Z,11.30
2018-08-09T13:56:01.339Z,12.55
2018-08-09T13:58:30.034Z,8.88
2018-08-09T14:00:58.590Z,9.23
2018-08-09T14:03:29.030Z,11.08
2018-08-09T14:05:59.425Z,12.47
2018-08-09T14:08:29.782Z,13.08
2018-08-09T14:11:00.017Z,11.30
2018-08-09T14:13:29.925Z,8.40
2018-08-09T14:16:04.068Z,11.80
2018-08-09T14:18:34.769Z,11.80
2018-08-09T14:21:05.705Z,11.55
2018-08-09T14:23:40.917Z,7.83
2018-08-09T14:26:11.241Z,8.95
2018-08-09T14:28:41.282Z,10.70
2018-08-09T14:31:10.879Z,8.90
2018-08-09T14:33:40.704Z,8.35
2018-08-09T14:36:09.716Z,10.50
2018-08-09T14:38:39.455Z,11.12
2018-08-09T14:41:09.824Z,9.03
2018-08-09T14:43:39.396Z,8.00
2018-08-09T14:46:08.954Z,7.70
2018-08-09T14:48:39.103Z,9.18
2018-08-09T14:51:09.078Z,8.85
2018-08-09T14:53:39.164Z,15.50
2018-08-09T14:56:09.426Z,9.83
2018-08-09T14:58:39.929Z,8.78
2018-08-09T15:01:09.711Z,11.75
2018-08-09T15:03:43.445Z,10.88
2018-08-09T15:06:13.419Z,9.70
2018-08-09T15:08:43.598Z,7.83
2018-08-09T15:11:13.909Z,8.93
2018-08-09T15:13:43.588Z,8.95
2018-08-09T15:16:13.251Z,12.70
2018-08-09T15:18:42.942Z,9.43
2018-08-09T15:21:12.430Z,8.53
2018-08-09T15:23:42.591Z,14.43
2018-08-09T15:26:12.683Z,9.20
2018-08-09T15:28:43.515Z,10.32
2018-08-09T15:31:12.888Z,11.10
2018-08-09T15:33:42.172Z,11.70
2018-08-09T15:36:11.998Z,10.32
2018-08-09T15:38:46.994Z,13.88
2018-08-09T15:41:17.368Z,9.10
2018-08-09T15:43:47.911Z,14.80
2018-08-09T15:46:18.643Z,10.95
2018-08-09T15:48:48.880Z,14.00
2018-08-09T15:51:18.453Z,7.47
2018-08-09T15:53:47.648Z,10.78
2018-08-09T15:56:18.449Z,11.03
2018-08-09T15:58:48.396Z,12.10
2018-08-09T16:01:18.550Z,12.53
2018-08-09T16:03:48.567Z,9.20
2018-08-09T16:06:18.291Z,11.15
2018-08-09T16:08:48.574Z,10.00
2018-08-09T16:11:19.499Z,9.85
2018-08-09T16:13:50.247Z,12.73
2018-08-09T16:16:19.890Z,10.15
2018-08-09T16:18:50.723Z,7.80
2018-08-09T16:21:20.357Z,11.35
2018-08-09T16:23:50.434Z,8.90
2018-08-09T16:26:20.396Z,14.18
2018-08-09T16:28:49.941Z,8.73
2018-08-09T16:31:21.465Z,11.63
2018-08-09T16:34:01.796Z,9.98
2018-08-09T16:36:35.456Z,9.10
2018-08-09T16:39:15.503Z,10.18
2018-08-09T16:41:49.033Z,7.28
2018-08-09T16:44:18.693Z,12.23
2018-08-09T16:46:49.351Z,9.90
2018-08-09T16:49:19.743Z,8.45
2018-08-09T16:51:49.360Z,9.50
2018-08-09T16:54:19.282Z,7.97
2018-08-09T16:56:49.190Z,10.25
2018-08-09T16:59:17.788Z,10.80
2018-08-09T17:01:46.382Z,11.45
2018-08-09T17:04:16.590Z,9.73
2018-08-09T17:06:46.126Z,8.13
2018-08-09T17:09:15.204Z,9.50
2018-08-09T17:11:44.964Z,8.85
2018-08-09T17:14:14.944Z,13.50
2018-08-09T17:16:44.093Z,13.20
2018-08-09T17:19:12.625Z,8.35
2018-08-09T17:21:41.323Z,9.40
2018-08-09T17:24:10.731Z,11.30
2018-08-09T17:26:39.605Z,11.08
2018-08-09T17:29:09.111Z,10.98
2018-08-09T17:31:37.677Z,9.33
2018-08-09T17:34:06.327Z,8.93
2018-08-09T17:36:34.905Z,7.95
2018-08-09T17:39:03.819Z,10.72
2018-08-09T17:41:32.395Z,9.50
2018-08-09T17:44:00.949Z,9.45
2018-08-09T17:46:29.537Z,14.53
2018-08-09T17:48:58.133Z,11.35
2018-08-09T17:51:26.685Z,10.08
2018-08-09T17:53:55.254Z,10.55
2018-08-09T17:56:23.820Z,9.13
2018-08-09T17:58:52.423Z,8.93
2018-08-09T18:01:20.996Z,12.55
2018-08-09T18:03:49.622Z,8.98
2018-08-09T18:06:18.219Z,8.73
2018-08-09T18:08:46.845Z,10.40
2018-08-09T18:11:15.795Z,13.98
2018-08-09T18:13:44.349Z,14.53
2018-08-09T18:16:12.881Z,11.25
2018-08-09T18:18:41.504Z,10.43
2018-08-09T18:21:10.026Z,11.38
2018-08-09T18:23:39.031Z,10.18
2018-08-09T18:26:07.670Z,9.65
2018-08-09T18:28:36.223Z,9.10
2018-08-09T18:31:04.808Z,9.35
2018-08-09T18:33:33.486Z,10.40
2018-08-09T18:36:02.019Z,8.70
2018-08-09T18:38:30.641Z,10.23
2018-08-09T18:40:59.237Z,7.25
2018-08-09T18:43:27.818Z,11.25
2018-08-09T18:45:56.428Z,9.40
2018-08-09T18:48:24.993Z,10.18
2018-08-09T18:50:53.636Z,8.05
2018-08-09T18:53:22.205Z,9.40
2018-08-09T18:55:50.789Z,10.10
2018-08-09T18:58:19.374Z,7.90
2018-08-09T19:00:47.919Z,8.23
2018-08-09T19:03:16.496Z,8.05
2018-08-09T19:05:45.058Z,11.25
2018-08-09T19:08:13.674Z,13.93
2018-08-09T19:10:42.814Z,11.03
2018-08-09T19:13:11.460Z,8.15
2018-08-09T19:15:40.829Z,10.00
2018-08-09T19:18:10.462Z,10.18
2018-08-09T19:20:39.031Z,10.53
2018-08-09T19:23:07.669Z,14.58
2018-08-09T19:25:36.289Z,9.98
2018-08-09T19:28:04.948Z,17.25
2018-08-09T19:30:33.490Z,13.50
2018-08-09T19:33:02.139Z,14.90
2018-08-09T19:35:30.688Z,11.68
2018-08-09T19:37:59.986Z,10.72
2018-08-09T19:40:30.266Z,8.08
2018-08-09T19:42:59.800Z,8.75
2018-08-09T19:45:28.531Z,13.95
2018-08-09T19:47:57.149Z,9.45
2018-08-09T19:50:38.065Z,12.58
2018-08-09T19:56:00.816Z,13.13
2018-08-09T19:58:29.472Z,15.77
2018-08-09T20:00:58.207Z,14.73
2018-08-09T20:03:26.934Z,10.27
2018-08-09T20:05:55.670Z,13.50
2018-08-09T20:08:24.505Z,11.13
2018-08-09T20:10:53.334Z,14.03
2018-08-09T20:13:22.215Z,19.23
2018-08-09T20:15:50.824Z,15.17
2018-08-09T20:18:19.628Z,19.63
2018-08-09T20:20:48.312Z,9.97
2018-08-09T20:23:17.725Z,15.37
2018-08-09T20:25:46.489Z,12.37
2018-08-09T20:28:15.340Z,15.40
2018-08-09T20:30:44.017Z,13.93
2018-08-09T20:33:12.858Z,15.07
2018-08-09T20:35:41.546Z,16.73
2018-08-09T20:38:10.448Z,15.83
2018-08-09T20:40:39.284Z,12.33
2018-08-09T20:43:08.042Z,13.83
2018-08-09T20:45:36.798Z,14.90
2018-08-09T20:48:05.701Z,13.17
2018-08-09T20:50:34.588Z,13.90
2018-08-09T20:53:03.322Z,12.90
2018-08-09T20:55:32.176Z,17.37
2018-08-09T20:58:01.142Z,13.10
2018-08-09T21:00:31.435Z,17.13
2018-08-09T21:03:00.810Z,13.90
2018-08-09T21:05:30.930Z,15.97
2018-08-09T21:07:59.519Z,18.17
2018-08-09T21:10:28.639Z,17.07
2018-08-09T21:12:57.302Z,17.47
2018-08-09T21:15:25.967Z,14.13
2018-08-09T21:17:54.576Z,19.07
2018-08-09T21:20:23.816Z,16.23
2018-08-09T21:22:52.567Z,15.80
2018-08-09T21:25:21.201Z,18.47
2018-08-09T21:27:50.123Z,15.23
2018-08-09T21:30:20.060Z,15.63
2018-08-09T21:32:49.131Z,20.33
2018-08-09T21:35:17.721Z,21.17
2018-08-09T21:37:46.595Z,17.43
2018-08-09T21:40:15.740Z,19.27
2018-08-09T21:42:44.332Z,16.77
2018-08-09T21:45:14.901Z,13.93
2018-08-09T21:47:43.482Z,19.00
2018-08-09T21:50:14.339Z,17.00
2018-08-09T21:52:43.018Z,16.70
2018-08-09T21:55:12.467Z,20.23
2018-08-09T21:57:41.730Z,15.87
2018-08-09T22:00:18.708Z,16.17
2018-08-09T22:02:47.235Z,18.40
2018-08-09T22:05:21.220Z,17.00
2018-08-09T22:07:55.100Z,15.90
2018-08-09T22:10:29.034Z,16.37
2018-08-09T22:13:03.036Z,19.00
2018-08-09T22:15:36.839Z,16.63
2018-08-09T22:18:10.852Z,23.07
2018-08-09T22:20:44.610Z,20.97
2018-08-09T22:23:13.198Z,14.17
2018-08-09T22:25:41.735Z,17.43
2018-08-09T22:28:10.302Z,16.47
2018-08-09T22:33:31.579Z,20.23
2018-08-09T22:36:00.167Z,17.63
2018-08-09T22:38:29.275Z,14.53
2018-08-09T22:40:57.908Z,17.33
2018-08-09T22:43:26.538Z,15.63
2018-08-09T22:45:55.071Z,18.40
2018-08-09T22:48:23.626Z,15.27
2018-08-09T22:50:52.229Z,17.17
2018-08-09T22:53:20.804Z,17.27
2018-08-09T22:55:49.410Z,21.60
2018-08-09T22:58:18.029Z,22.27
2018-08-09T23:00:46.616Z,16.77
2018-08-09T23:03:15.327Z,16.83
2018-08-09T23:05:43.874Z,22.33
2018-08-09T23:08:13.739Z,18.57
2018-08-09T23:10:43.249Z,22.00
2018-08-09T23:13:12.791Z,18.00
2018-08-09T23:15:42.091Z,17.63
2018-08-09T23:18:10.783Z,18.10
2018-08-09T23:20:39.832Z,19.43
2018-08-09T23:23:08.466Z,16.27
2018-08-09T23:25:37.071Z,21.23
2018-08-09T23:28:06.391Z,22.30
2018-08-09T23:30:35.055Z,15.67
2018-08-09T23:33:03.767Z,18.27
2018-08-09T23:35:32.404Z,19.53
2018-08-09T23:38:01.011Z,19.67
2018-08-09T23:40:29.620Z,14.90
2018-08-09T23:42:58.233Z,16.17
2018-08-09T23:45:26.846Z,20.10
2018-08-09T23:47:55.473Z,17.07
2018-08-09T23:50:24.121Z,16.77
2018-08-09T23:52:52.707Z,16.37
2018-08-09T23:55:21.286Z,13.30
2018-08-09T23:57:49.853Z,16.80
